createdAt,value
2019-02-19T00:01:02.875Z,6.83
2019-02-19T00:03:30.119Z,6.47
2019-02-19T00:05:57.364Z,6.93
2019-02-19T00:08:24.621Z,6.33
2019-02-19T00:10:51.875Z,6.90
2019-02-19T00:13:19.100Z,6.63
2019-02-19T00:15:46.785Z,6.70
2019-02-19T00:18:14.037Z,6.70
2019-02-19T00:20:41.361Z,7.03
2019-02-19T00:23:08.579Z,6.23
2019-02-19T00:25:35.804Z,6.70
2019-02-19T00:28:03.040Z,6.63
2019-02-19T00:30:30.344Z,6.40
2019-02-19T00:32:57.568Z,5.63
2019-02-19T00:35:25.118Z,5.47
2019-02-19T00:37:52.433Z,5.73
2019-02-19T00:40:19.659Z,6.13
2019-02-19T00:42:46.896Z,6.00
2019-02-19T00:45:16.693Z,5.80
2019-02-19T00:47:43.647Z,5.50
2019-02-19T00:50:10.911Z,5.53
2019-02-19T00:52:38.439Z,5.60
2019-02-19T00:55:06.258Z,5.17
2019-02-19T00:57:33.492Z,5.30
2019-02-19T01:00:01.129Z,5.17
2019-02-19T01:02:28.391Z,5.53
2019-02-19T01:04:55.643Z,5.27
2019-02-19T01:07:23.272Z,6.10
2019-02-19T01:09:50.925Z,6.03
2019-02-19T01:12:18.583Z,5.23
2019-02-19T01:14:45.816Z,5.67
2019-02-19T01:17:13.078Z,5.60
2019-02-19T01:19:40.301Z,5.83
2019-02-19T01:22:08.079Z,5.77
2019-02-19T01:24:35.327Z,6.13
2019-02-19T01:27:02.942Z,6.00
2019-02-19T01:29:30.985Z,6.00
2019-02-19T01:31:58.652Z,6.73
2019-02-19T01:34:25.876Z,6.13
2019-02-19T01:36:53.460Z,6.33
2019-02-19T01:39:20.682Z,6.70
2019-02-19T01:41:47.899Z,5.90
2019-02-19T01:44:15.128Z,7.00
2019-02-19T01:46:42.366Z,6.50
2019-02-19T01:49:09.919Z,6.20
2019-02-19T01:51:37.144Z,6.50
2019-02-19T01:54:04.629Z,6.50
2019-02-19T01:56:31.848Z,7.13
2019-02-19T01:58:59.076Z,6.87
2019-02-19T02:01:26.309Z,6.93
2019-02-19T02:03:53.628Z,7.13
2019-02-19T02:06:20.857Z,7.27
2019-02-19T02:08:48.112Z,7.63
2019-02-19T02:11:15.698Z,7.23
2019-02-19T02:13:42.916Z,6.67
2019-02-19T02:16:10.148Z,7.17
2019-02-19T02:18:37.384Z,7.87
2019-02-19T02:21:04.711Z,7.80
2019-02-19T02:23:31.939Z,6.77
2019-02-19T02:25:59.164Z,6.90
2019-02-19T02:28:26.390Z,7.60
2019-02-19T02:30:53.652Z,7.00
2019-02-19T02:33:20.967Z,7.13
2019-02-19T02:35:48.291Z,7.43
2019-02-19T02:38:15.529Z,6.40
2019-02-19T02:40:42.748Z,7.00
2019-02-19T02:43:10.013Z,7.03
2019-02-19T02:45:37.237Z,6.90
2019-02-19T02:48:04.392Z,7.27
2019-02-19T02:50:31.611Z,6.73
2019-02-19T02:52:58.841Z,6.63
2019-02-19T02:55:26.177Z,6.90
2019-02-19T02:57:53.391Z,7.70
2019-02-19T03:00:20.620Z,7.00
2019-02-19T03:02:48.188Z,7.60
2019-02-19T03:05:15.424Z,7.53
2019-02-19T03:07:46.859Z,7.87
2019-02-19T03:10:14.092Z,9.10
2019-02-19T03:12:41.317Z,8.13
2019-02-19T03:15:09.217Z,8.27
2019-02-19T03:17:36.437Z,8.10
2019-02-19T03:20:04.131Z,7.50
2019-02-19T03:22:31.633Z,7.80
2019-02-19T03:24:59.312Z,7.40
2019-02-19T03:27:26.535Z,8.03
2019-02-19T03:29:53.781Z,7.67
2019-02-19T03:32:21.124Z,6.97
2019-02-19T03:34:48.461Z,7.13
2019-02-19T03:37:15.675Z,6.77
2019-02-19T03:39:42.930Z,7.13
2019-02-19T03:42:10.163Z,6.50
2019-02-19T03:44:37.736Z,6.60
2019-02-19T03:47:04.960Z,5.60
2019-02-19T03:49:32.205Z,6.30
2019-02-19T03:51:59.423Z,7.00
2019-02-19T03:54:26.719Z,6.20
2019-02-19T03:56:54.283Z,5.87
2019-02-19T03:59:21.545Z,6.37
2019-02-19T04:01:48.768Z,7.30
2019-02-19T04:04:16.024Z,6.73
2019-02-19T04:06:43.602Z,7.10
2019-02-19T04:09:11.359Z,6.57
2019-02-19T04:11:38.592Z,6.43
2019-02-19T04:14:05.929Z,7.03
2019-02-19T04:16:33.145Z,6.67
2019-02-19T04:19:00.781Z,6.53
2019-02-19T04:21:28.005Z,6.87
2019-02-19T04:23:55.689Z,7.13
2019-02-19T04:26:22.912Z,6.80
2019-02-19T04:28:50.185Z,6.97
2019-02-19T04:31:17.416Z,6.17
2019-02-19T04:33:45.024Z,5.87
2019-02-19T04:36:12.257Z,6.70
2019-02-19T04:38:39.517Z,5.97
2019-02-19T04:41:06.829Z,6.73
2019-02-19T04:43:34.050Z,6.30
2019-02-19T04:46:01.276Z,6.43
2019-02-19T04:48:28.526Z,6.50
2019-02-19T04:50:55.836Z,6.73
2019-02-19T04:53:23.433Z,6.87
2019-02-19T04:55:50.994Z,7.00
2019-02-19T04:58:18.605Z,6.97
2019-02-19T05:00:46.245Z,6.87
2019-02-19T05:03:13.567Z,7.03
2019-02-19T05:05:40.827Z,7.77
2019-02-19T05:08:08.060Z,6.93
2019-02-19T05:10:35.404Z,7.37
2019-02-19T05:13:02.979Z,6.87
2019-02-19T05:15:30.220Z,7.77
2019-02-19T05:17:57.438Z,7.60
2019-02-19T05:20:24.687Z,7.00
2019-02-19T05:22:52.188Z,7.00
2019-02-19T05:25:19.471Z,7.30
2019-02-19T05:27:46.689Z,7.33
2019-02-19T05:30:13.946Z,7.20
2019-02-19T05:32:41.176Z,7.73
2019-02-19T05:35:08.525Z,7.90
2019-02-19T05:37:35.745Z,8.43
2019-02-19T05:40:03.749Z,8.13
2019-02-19T05:42:31.223Z,8.20
2019-02-19T05:44:58.470Z,8.30
2019-02-19T05:47:25.691Z,9.00
2019-02-19T05:49:52.944Z,7.90
2019-02-19T05:52:20.164Z,8.77
2019-02-19T05:54:47.430Z,8.33
2019-02-19T05:57:14.644Z,9.27
2019-02-19T05:59:41.901Z,8.67
2019-02-19T06:02:09.144Z,9.00
2019-02-19T06:04:36.695Z,8.10
2019-02-19T06:07:04.265Z,7.83
2019-02-19T06:09:31.483Z,7.80
2019-02-19T06:11:58.722Z,8.20
2019-02-19T06:14:25.939Z,8.07
2019-02-19T06:16:58.501Z,8.47
2019-02-19T06:19:22.291Z,8.53
2019-02-19T06:21:49.553Z,9.50
2019-02-19T06:24:16.867Z,9.60
2019-02-19T06:26:44.221Z,8.47
2019-02-19T06:29:11.822Z,8.97
2019-02-19T06:31:39.481Z,8.73
2019-02-19T06:34:06.713Z,9.20
2019-02-19T06:36:33.976Z,9.07
2019-02-19T06:39:01.195Z,9.40
2019-02-19T06:41:28.477Z,8.63
2019-02-19T06:43:55.696Z,9.47
2019-02-19T06:46:22.954Z,9.27
2019-02-19T06:48:50.291Z,10.20
2019-02-19T06:51:17.543Z,9.50
2019-02-19T06:53:44.759Z,8.93
2019-02-19T06:56:12.009Z,8.63
2019-02-19T06:58:39.232Z,9.80
2019-02-19T07:01:06.517Z,9.17
2019-02-19T07:03:38.116Z,9.23
2019-02-19T07:06:05.365Z,9.80
2019-02-19T07:08:32.600Z,11.27
2019-02-19T07:11:00.173Z,10.97
2019-02-19T07:13:27.415Z,11.57
2019-02-19T07:15:55.012Z,11.50
2019-02-19T07:18:22.666Z,11.07
2019-02-19T07:20:50.048Z,11.17
2019-02-19T07:23:17.265Z,11.30
2019-02-19T07:25:44.490Z,10.97
2019-02-19T07:28:12.062Z,10.87
2019-02-19T07:30:39.282Z,10.50
2019-02-19T07:33:06.770Z,10.40
2019-02-19T07:35:33.998Z,11.50
2019-02-19T07:38:01.580Z,11.60
2019-02-19T07:40:28.801Z,11.37
2019-02-19T07:42:56.018Z,10.73
2019-02-19T07:45:23.245Z,10.17
2019-02-19T07:47:50.496Z,9.97
2019-02-19T07:50:18.052Z,10.33
2019-02-19T07:52:45.717Z,9.90
2019-02-19T07:55:12.939Z,9.67
2019-02-19T07:57:40.168Z,10.23
2019-02-19T08:00:08.241Z,10.00
2019-02-19T08:02:35.949Z,9.70
2019-02-19T08:05:03.271Z,9.93
2019-02-19T08:07:30.520Z,11.63
2019-02-19T08:09:58.008Z,10.80
2019-02-19T08:12:26.287Z,11.10
2019-02-19T08:14:54.789Z,10.43
2019-02-19T08:17:22.433Z,10.63
2019-02-19T08:19:49.654Z,10.27
2019-02-19T08:22:16.904Z,11.03
2019-02-19T08:24:44.135Z,12.03
2019-02-19T08:27:11.405Z,11.50
2019-02-19T08:29:38.624Z,10.67
2019-02-19T08:32:05.885Z,11.20
2019-02-19T08:34:33.116Z,11.50
2019-02-19T08:37:00.360Z,17.07
2019-02-19T08:39:27.905Z,18.47
2019-02-19T08:41:55.163Z,12.03
2019-02-19T08:44:22.398Z,12.70
2019-02-19T08:46:49.840Z,12.67
2019-02-19T08:49:17.164Z,13.60
2019-02-19T08:51:45.205Z,13.43
2019-02-19T08:54:13.684Z,13.37
2019-02-19T08:56:40.984Z,14.10
2019-02-19T08:59:08.229Z,13.53
2019-02-19T09:01:35.459Z,14.70
2019-02-19T09:04:03.015Z,13.73
2019-02-19T09:06:30.543Z,13.73
2019-02-19T09:08:57.815Z,14.27
2019-02-19T09:11:25.063Z,15.37
2019-02-19T09:13:53.003Z,14.97
2019-02-19T09:16:20.312Z,14.47
2019-02-19T09:18:47.544Z,15.47
2019-02-19T09:21:14.862Z,15.57
2019-02-19T09:23:42.415Z,16.13
2019-02-19T09:26:09.805Z,16.57
2019-02-19T09:28:37.037Z,17.70
2019-02-19T09:31:04.278Z,18.30
2019-02-19T09:33:31.591Z,18.33
2019-02-19T09:35:58.813Z,16.90
2019-02-19T09:38:26.047Z,16.33
2019-02-19T09:40:53.290Z,16.37
2019-02-19T09:43:20.844Z,16.10
2019-02-19T09:45:48.061Z,16.10
2019-02-19T09:48:16.058Z,16.73
2019-02-19T09:50:43.724Z,19.10
2019-02-19T09:53:10.945Z,18.03
2019-02-19T09:55:38.196Z,17.23
2019-02-19T09:58:05.449Z,18.70
2019-02-19T10:00:32.689Z,18.80
2019-02-19T10:02:59.944Z,19.20
2019-02-19T10:05:27.177Z,18.87
2019-02-19T10:07:55.837Z,18.57
2019-02-19T10:10:23.308Z,18.13
2019-02-19T10:12:50.833Z,17.00
2019-02-19T10:15:18.057Z,15.97
2019-02-19T10:17:45.304Z,15.90
2019-02-19T10:20:13.475Z,15.63
2019-02-19T10:22:40.870Z,16.23
2019-02-19T10:25:09.317Z,15.43
2019-02-19T10:27:36.553Z,15.23
2019-02-19T10:30:04.849Z,15.07
2019-02-19T10:32:32.073Z,14.33
2019-02-19T10:34:59.334Z,16.47
2019-02-19T10:37:26.637Z,15.40
2019-02-19T10:39:53.978Z,15.73
2019-02-19T10:42:21.203Z,16.47
2019-02-19T10:44:48.442Z,16.93
2019-02-19T10:47:15.696Z,16.30
2019-02-19T10:49:43.320Z,15.43
2019-02-19T10:52:10.543Z,16.03
2019-02-19T10:54:37.775Z,15.97
2019-02-19T10:57:04.993Z,13.77
2019-02-19T10:59:32.230Z,14.60
2019-02-19T11:01:59.539Z,14.67
2019-02-19T11:04:27.119Z,13.93
2019-02-19T11:06:54.339Z,14.27
2019-02-19T11:09:21.559Z,13.83
2019-02-19T11:11:48.945Z,13.60
2019-02-19T11:14:16.168Z,14.60
2019-02-19T11:16:43.995Z,14.87
2019-02-19T11:19:11.240Z,14.67
2019-02-19T11:21:38.468Z,15.13
2019-02-19T11:24:05.693Z,14.23
2019-02-19T11:26:32.921Z,14.33
2019-02-19T11:29:00.164Z,14.40
2019-02-19T11:31:27.470Z,14.03
2019-02-19T11:33:54.692Z,14.33
2019-02-19T11:36:21.917Z,14.23
2019-02-19T11:38:49.146Z,13.77
2019-02-19T11:41:16.371Z,12.97
2019-02-19T11:43:43.630Z,13.37
2019-02-19T11:46:10.947Z,11.97
2019-02-19T11:48:38.246Z,12.57
2019-02-19T11:51:05.477Z,12.20
2019-02-19T11:53:32.706Z,12.30
2019-02-19T11:55:59.941Z,12.27
2019-02-19T11:58:27.259Z,11.07
2019-02-19T12:00:54.589Z,11.03
2019-02-19T12:03:21.920Z,9.70
2019-02-19T12:05:49.143Z,8.97
2019-02-19T12:08:16.405Z,8.57
2019-02-19T12:10:43.624Z,9.93
2019-02-19T12:13:11.496Z,9.50
2019-02-19T12:15:38.805Z,9.20
2019-02-19T12:18:06.032Z,9.50
2019-02-19T12:20:33.273Z,10.30
2019-02-19T12:23:00.496Z,9.10
2019-02-19T12:25:27.740Z,8.97
2019-02-19T12:27:54.963Z,8.47
2019-02-19T12:30:22.217Z,6.10
2019-02-19T12:32:49.532Z,6.00
2019-02-19T12:35:17.083Z,6.37
2019-02-19T12:37:44.392Z,5.87
2019-02-19T12:40:11.653Z,6.37
2019-02-19T12:42:38.868Z,6.43
2019-02-19T12:45:07.189Z,6.80
2019-02-19T12:47:34.396Z,7.20
2019-02-19T12:50:01.762Z,7.57
2019-02-19T12:52:29.078Z,6.13
2019-02-19T12:54:56.355Z,5.87
2019-02-19T12:57:23.740Z,5.43
2019-02-19T12:59:56.633Z,5.27
2019-02-19T13:02:20.112Z,4.60
2019-02-19T13:04:47.287Z,4.50
2019-02-19T13:07:15.131Z,4.80
2019-02-19T13:09:42.400Z,4.03
2019-02-19T13:12:10.664Z,4.60
2019-02-19T13:14:38.100Z,3.97
2019-02-19T13:17:05.676Z,3.13
2019-02-19T13:19:33.233Z,2.70
2019-02-19T13:22:00.799Z,2.77
2019-02-19T13:24:28.021Z,2.90
2019-02-19T13:26:55.265Z,2.60
2019-02-19T13:29:22.493Z,2.43
2019-02-19T13:31:49.757Z,2.40
2019-02-19T13:34:16.976Z,2.53
2019-02-19T13:36:46.373Z,2.83
2019-02-19T13:39:13.955Z,2.77
2019-02-19T13:41:41.357Z,2.63
2019-02-19T13:44:08.575Z,2.10
2019-02-19T13:46:35.959Z,2.77
2019-02-19T13:49:12.255Z,1.90
2019-02-19T13:51:39.244Z,1.93
2019-02-19T13:54:33.866Z,1.83
2019-02-19T13:57:01.676Z,2.07
2019-02-19T13:59:28.895Z,2.37
2019-02-19T14:01:56.152Z,1.70
2019-02-19T14:04:31.717Z,1.70
2019-02-19T14:06:59.013Z,1.40
2019-02-19T14:09:26.510Z,1.80
2019-02-19T14:11:53.823Z,1.60
2019-02-19T14:14:43.805Z,1.53
2019-02-19T14:17:14.476Z,1.73
2019-02-19T14:19:46.805Z,2.33
2019-02-19T14:22:32.083Z,2.20
2019-02-19T14:25:15.468Z,2.50
2019-02-19T14:27:53.536Z,2.20
2019-02-19T14:30:55.271Z,2.63
2019-02-19T14:33:36.204Z,1.90
2019-02-19T14:36:37.914Z,2.33
2019-02-19T14:39:44.723Z,1.90
2019-02-19T14:42:31.561Z,2.13
2019-02-19T14:45:10.204Z,2.33
2019-02-19T14:48:03.326Z,2.93
2019-02-19T14:50:57.708Z,2.50
2019-02-19T14:53:51.881Z,2.67
2019-02-19T14:56:53.489Z,2.50
2019-02-19T14:59:46.076Z,2.63
2019-02-19T15:02:31.727Z,2.90
2019-02-19T15:05:17.189Z,2.63
2019-02-19T15:08:02.545Z,2.90
2019-02-19T15:10:48.368Z,3.30
2019-02-19T15:13:38.217Z,2.53
2019-02-19T15:16:25.001Z,2.80
2019-02-19T15:19:06.547Z,2.87
2019-02-19T15:21:55.868Z,2.60
2019-02-19T15:24:48.551Z,3.30
2019-02-19T15:27:31.681Z,3.70
2019-02-19T15:30:17.292Z,3.53
2019-02-19T15:33:06.571Z,3.17
2019-02-19T15:35:52.162Z,3.17
2019-02-19T15:38:37.736Z,3.80
2019-02-19T15:41:19.204Z,2.90
2019-02-19T15:44:08.720Z,3.20
2019-02-19T15:46:56.301Z,2.90
2019-02-19T15:49:47.806Z,2.97
2019-02-19T15:52:35.043Z,2.80
2019-02-19T15:55:21.789Z,2.60
2019-02-19T15:58:20.689Z,2.73
2019-02-19T16:01:06.033Z,3.40
2019-02-19T16:03:45.952Z,2.73
2019-02-19T16:06:27.556Z,3.43
2019-02-19T16:09:23.331Z,3.27
2019-02-19T16:11:59.039Z,3.40
2019-02-19T16:15:00.915Z,3.27
2019-02-19T16:17:56.599Z,3.17
2019-02-19T16:20:46.241Z,3.37
2019-02-19T16:23:32.590Z,3.20
2019-02-19T16:26:37.285Z,3.20
2019-02-19T16:29:26.925Z,3.30
2019-02-19T16:32:25.991Z,3.33
2019-02-19T16:34:59.472Z,3.23
2019-02-19T16:37:39.473Z,3.27
2019-02-19T16:40:26.390Z,3.50
2019-02-19T16:43:31.490Z,3.80
2019-02-19T16:46:17.079Z,3.70
2019-02-19T16:48:53.767Z,3.50
2019-02-19T16:51:44.251Z,3.77
2019-02-19T16:54:29.416Z,3.83
2019-02-19T16:57:05.905Z,3.80
2019-02-19T16:59:55.972Z,3.80
2019-02-19T17:02:40.678Z,3.70
2019-02-19T17:05:14.674Z,3.77
2019-02-19T17:08:00.283Z,4.47
2019-02-19T17:10:35.148Z,4.20
2019-02-19T17:13:30.210Z,4.40
2019-02-19T17:16:24.212Z,4.40
2019-02-19T17:19:07.440Z,4.93
2019-02-19T17:21:54.049Z,4.90
2019-02-19T17:24:40.446Z,4.60
2019-02-19T17:27:27.278Z,5.13
2019-02-19T17:30:14.439Z,4.97
2019-02-19T17:32:49.331Z,5.40
2019-02-19T17:35:38.637Z,5.60
2019-02-19T17:38:21.229Z,6.10
2019-02-19T17:41:03.189Z,5.83
2019-02-19T17:43:44.285Z,5.87
2019-02-19T17:46:20.156Z,5.30
2019-02-19T17:49:09.835Z,5.27
2019-02-19T17:51:55.729Z,6.03
2019-02-19T17:54:48.221Z,6.90
2019-02-19T17:57:32.016Z,7.80
2019-02-19T18:00:22.464Z,8.63
2019-02-19T18:03:00.996Z,8.43
2019-02-19T18:05:56.445Z,9.00
2019-02-19T18:08:46.293Z,8.83
2019-02-19T18:11:39.771Z,8.57
2019-02-19T18:14:30.415Z,8.20
2019-02-19T18:17:36.903Z,13.37
2019-02-19T18:20:04.321Z,14.80
2019-02-19T18:22:33.843Z,14.23
2019-02-19T18:25:01.152Z,12.03
2019-02-19T18:27:28.383Z,11.33
2019-02-19T18:29:55.881Z,10.60
2019-02-19T18:32:23.437Z,10.00
2019-02-19T18:34:50.649Z,10.07
2019-02-19T18:37:21.231Z,9.50
2019-02-19T18:39:48.523Z,9.83
2019-02-19T18:42:16.294Z,9.10
2019-02-19T18:44:44.007Z,9.00
2019-02-19T18:47:11.512Z,10.73
2019-02-19T18:49:40.690Z,11.73
2019-02-19T18:52:08.044Z,10.97
2019-02-19T18:54:35.296Z,11.47
2019-02-19T18:57:02.660Z,12.57
2019-02-19T18:59:30.167Z,13.90
2019-02-19T19:01:57.439Z,15.27
2019-02-19T19:04:24.826Z,17.40
2019-02-19T19:06:52.156Z,16.37
2019-02-19T19:09:19.573Z,15.73
2019-02-19T19:11:47.148Z,11.40
2019-02-19T19:14:14.443Z,10.47
2019-02-19T19:16:41.668Z,9.67
2019-02-19T19:19:08.925Z,9.20
2019-02-19T19:21:36.151Z,9.87
2019-02-19T19:24:03.403Z,9.23
2019-02-19T19:26:30.617Z,9.83
2019-02-19T19:28:57.960Z,10.37
2019-02-19T19:31:33.118Z,11.53
2019-02-19T19:33:54.397Z,12.17
2019-02-19T19:36:21.911Z,13.50
2019-02-19T19:38:49.592Z,13.30
2019-02-19T19:41:16.717Z,11.67
2019-02-19T19:43:43.947Z,11.60
2019-02-19T19:46:11.632Z,11.63
2019-02-19T19:48:38.897Z,12.07
2019-02-19T19:51:06.222Z,11.13
2019-02-19T19:53:33.800Z,10.87
2019-02-19T19:56:01.356Z,11.30
2019-02-19T19:58:28.663Z,10.37
2019-02-19T20:00:55.971Z,10.13
2019-02-19T20:03:23.292Z,10.20
2019-02-19T20:05:51.833Z,10.10
2019-02-19T20:08:19.059Z,10.60
2019-02-19T20:10:46.608Z,11.87
2019-02-19T20:13:13.833Z,11.70
2019-02-19T20:15:41.424Z,18.97
2019-02-19T20:18:28.389Z,25.80
2019-02-19T20:20:55.808Z,23.07
2019-02-19T20:23:23.350Z,19.87
2019-02-19T20:25:50.597Z,16.43
2019-02-19T20:28:17.825Z,16.37
2019-02-19T20:30:45.221Z,14.40
2019-02-19T20:33:12.634Z,13.70
2019-02-19T20:35:39.997Z,11.67
2019-02-19T20:38:07.795Z,11.37
2019-02-19T20:40:35.345Z,11.73
2019-02-19T20:43:02.927Z,11.43
2019-02-19T20:45:30.175Z,11.93
2019-02-19T20:47:57.408Z,11.47
2019-02-19T20:50:24.655Z,11.83
2019-02-19T20:52:51.872Z,12.67
2019-02-19T20:55:19.120Z,12.30
2019-02-19T20:57:46.339Z,11.67
2019-02-19T21:00:14.263Z,14.07
2019-02-19T21:02:41.489Z,14.47
2019-02-19T21:05:08.870Z,14.43
2019-02-19T21:07:36.091Z,13.33
2019-02-19T21:10:03.655Z,13.80
2019-02-19T21:12:30.878Z,12.63
2019-02-19T21:14:58.093Z,12.93
2019-02-19T21:17:25.317Z,13.53
2019-02-19T21:19:52.534Z,13.07
2019-02-19T21:22:19.960Z,12.73
2019-02-19T21:24:47.515Z,12.80
2019-02-19T21:27:14.740Z,13.70
2019-02-19T21:29:42.330Z,13.70
2019-02-19T21:32:09.984Z,14.23
2019-02-19T21:34:37.261Z,14.03
2019-02-19T21:37:09.880Z,13.10
2019-02-19T21:39:37.568Z,14.27
2019-02-19T21:42:10.656Z,13.93
2019-02-19T21:44:38.120Z,13.70
2019-02-19T21:47:05.788Z,14.47
2019-02-19T21:49:33.346Z,16.23
2019-02-19T21:52:00.593Z,15.50
2019-02-19T21:54:27.804Z,15.33
2019-02-19T21:56:55.056Z,15.63
2019-02-19T21:59:22.576Z,15.50
2019-02-19T22:01:50.157Z,14.87
2019-02-19T22:04:17.372Z,15.40
2019-02-19T22:06:45.177Z,14.77
2019-02-19T22:09:13.110Z,13.63
2019-02-19T22:11:40.359Z,13.93
2019-02-19T22:14:07.936Z,15.20
2019-02-19T22:16:35.311Z,14.73
2019-02-19T22:19:02.531Z,15.90
2019-02-19T22:21:40.085Z,14.50
2019-02-19T22:24:07.391Z,16.87
2019-02-19T22:26:34.631Z,15.83
2019-02-19T22:29:02.479Z,15.17
2019-02-19T22:31:29.742Z,16.07
2019-02-19T22:33:57.283Z,15.33
2019-02-19T22:36:24.545Z,15.57
2019-02-19T22:38:52.203Z,13.80
2019-02-19T22:41:19.452Z,13.20
2019-02-19T22:43:46.684Z,15.13
2019-02-19T22:46:14.180Z,13.13
2019-02-19T22:48:41.396Z,13.77
2019-02-19T22:51:08.671Z,13.03
2019-02-19T22:53:58.530Z,14.13
2019-02-19T22:56:28.960Z,13.57
2019-02-19T22:58:56.193Z,13.70
2019-02-19T23:01:36.148Z,13.90
2019-02-19T23:04:03.402Z,13.17
2019-02-19T23:06:30.668Z,13.00
2019-02-19T23:08:57.897Z,12.23
2019-02-19T23:11:25.112Z,12.33
2019-02-19T23:13:52.362Z,14.40
2019-02-19T23:16:19.583Z,13.83
2019-02-19T23:18:46.803Z,13.53
2019-02-19T23:21:14.032Z,14.83
2019-02-19T23:23:41.351Z,13.53
2019-02-19T23:26:08.563Z,13.67
2019-02-19T23:28:35.795Z,13.43
2019-02-19T23:31:03.026Z,14.83
2019-02-19T23:33:30.369Z,14.57
2019-02-19T23:36:11.668Z,15.10
2019-02-19T23:38:38.936Z,14.47
2019-02-19T23:41:07.173Z,14.50
2019-02-19T23:43:34.541Z,14.40
2019-02-19T23:46:02.171Z,13.13
2019-02-19T23:48:29.462Z,12.70
2019-02-19T23:50:56.716Z,12.73
2019-02-19T23:53:23.978Z,12.97
2019-02-19T23:55:51.611Z,13.03
2019-02-19T23:58:18.852Z,13.27
